Time;durP1;ratioP1;P1;durP2;ratioP2;P2;SDS_P1;SDS_P2;PMS_P1;PMS_P2;Temp;Humidity;BMP_temperature;BMP_pressure;BME280_temperature;BME280_humidity;BME280_pressure;Samples;Min_cycle;Max_cycle;Signal;HPM_P1;HPM_P2
2022/03/10 00:01:39;;;;;;;4.43;3.20;;;;;;;-148.56;100.00;61375.16;4987951;28;20037;-27
2022/03/10 00:04:04;;;;;;;4.85;2.95;;;;;;;-148.56;100.00;61375.16;4992221;28;20030;-28
2022/03/10 00:06:30;;;;;;;5.57;3.40;;;;;;;-148.56;100.00;61375.16;4988826;28;20021;-29
2022/03/10 00:08:55;;;;;;;5.18;2.80;;;;;;;-148.56;100.00;61375.16;4990603;28;20625;-28
2022/03/10 00:11:20;;;;;;;4.05;2.88;;;;;;;-148.56;100.00;61375.16;4992116;28;20026;-29
2022/03/10 00:13:46;;;;;;;4.47;2.92;;;;;;;-148.56;100.00;61375.16;4986945;28;20591;-29
2022/03/10 00:16:12;;;;;;;4.82;2.78;;;;;;;-148.56;100.00;61375.16;4989466;28;20033;-30
2022/03/10 00:18:37;;;;;;;3.75;2.80;;;;;;;-148.56;100.00;61375.16;4990470;28;20034;-29
2022/03/10 00:21:02;;;;;;;6.47;2.90;;;;;;;-148.56;100.00;61375.16;4989467;28;20037;-29
2022/03/10 00:23:28;;;;;;;4.65;2.95;;;;;;;-148.56;100.00;61375.16;4988117;28;20100;-30
2022/03/10 00:25:54;;;;;;;4.20;2.72;;;;;;;-148.56;100.00;61375.16;4989647;28;20496;-31
2022/03/10 00:28:20;;;;;;;3.47;2.70;;;;;;;-148.56;100.00;61375.16;4989717;28;20021;-28
2022/03/10 00:30:45;;;;;;;4.63;3.13;;;;;;;-148.56;100.00;61375.16;4990660;28;20030;-29
2022/03/10 00:33:11;;;;;;;4.18;2.72;;;;;;;-148.56;100.00;61375.16;4987934;28;20496;-29
2022/03/10 00:35:36;;;;;;;4.38;2.95;;;;;;;-148.56;100.00;61375.16;4989843;28;20034;-27
2022/03/10 00:38:01;;;;;;;4.93;2.90;;;;;;;-148.56;100.00;61375.16;4992923;28;20049;-29
2022/03/10 00:40:27;;;;;;;4.65;2.70;;;;;;;-148.56;100.00;61375.16;4994051;28;20515;-28
2022/03/10 00:42:53;;;;;;;3.15;2.50;;;;;;;-148.56;100.00;61375.16;4994138;28;20092;-31
2022/03/10 00:45:18;;;;;;;3.50;2.60;;;;;;;-148.56;100.00;61375.16;4992135;28;20021;-27
2022/03/10 00:47:44;;;;;;;3.60;2.83;;;;;;;-148.56;100.00;61375.16;4994084;28;20036;-25
2022/03/10 00:50:09;;;;;;;3.80;2.47;;;;;;;-148.56;100.00;61375.16;4992642;28;20420;-27
2022/03/10 00:52:44;;;;;;;3.90;2.42;;;;;;;-148.56;100.00;61375.16;4993681;28;20037;-26
2022/03/10 00:55:10;;;;;;;4.38;2.70;;;;;;;-148.56;100.00;61375.16;4991538;28;20038;-30
2022/03/10 00:57:36;;;;;;;4.05;2.58;;;;;;;-148.56;100.00;61375.16;4993479;28;20061;-29
2022/03/10 01:00:03;;;;;;;3.60;2.58;;;;;;;-148.56;100.00;61375.16;4992436;28;20882;-27
2022/03/10 01:02:30;;;;;;;5.47;2.72;;;;;;;-148.56;100.00;61375.16;4992340;28;20025;-32
2022/03/10 01:04:56;;;;;;;4.63;2.97;;;;;;;-148.56;100.00;61375.16;4994354;28;20030;-30
2022/03/10 01:07:21;;;;;;;4.25;2.60;;;;;;;-148.56;100.00;61375.16;4993303;28;20022;-26
2022/03/10 01:09:47;;;;;;;3.38;2.55;;;;;;;-148.56;100.00;61375.16;4992277;28;20696;-30
2022/03/10 01:12:12;;;;;;;4.13;2.67;;;;;;;-148.56;100.00;61375.16;4992171;28;20041;-32
2022/03/10 01:14:38;;;;;;;3.20;2.25;;;;;;;-148.56;100.00;61375.16;4992535;28;20028;-27
2022/03/10 01:17:04;;;;;;;3.25;2.50;;;;;;;-148.56;100.00;61375.16;4995464;28;20691;-26
2022/03/10 01:19:29;;;;;;;3.60;2.55;;;;;;;-148.56;100.00;61375.16;4994098;28;20108;-28
2022/03/10 01:21:55;;;;;;;3.80;2.50;;;;;;;-148.56;100.00;61375.16;4976068;28;20637;-24
2022/03/10 01:24:20;;;;;;;3.33;2.35;;;;;;;-148.56;100.00;61375.16;4993952;28;20036;-28
2022/03/10 01:26:46;;;;;;;4.05;2.58;;;;;;;-148.56;100.00;61375.16;4991669;28;21000;-28
2022/03/10 01:29:13;;;;;;;4.13;2.67;;;;;;;-148.56;100.00;61375.16;4994861;28;20041;-28
2022/03/10 01:31:38;;;;;;;3.50;2.65;;;;;;;-148.56;100.00;61375.16;4999838;28;20029;-29
2022/03/10 01:34:04;;;;;;;3.17;2.33;;;;;;;-148.56;100.00;61375.16;4998973;28;20041;-32
2022/03/10 01:36:29;;;;;;;4.35;2.35;;;;;;;-148.56;100.00;61375.16;5002140;28;20583;-30
2022/03/10 01:38:55;;;;;;;3.15;2.60;;;;;;;-148.56;100.00;61375.16;5002997;28;20041;-31
2022/03/10 01:41:20;;;;;;;3.45;2.38;;;;;;;-148.56;100.00;61375.16;5001510;28;20038;-31
2022/03/10 01:44:05;;;;;;;3.88;2.47;;;;;;;-148.56;100.00;61375.16;5001376;28;20628;-31
2022/03/10 01:46:31;;;;;;;3.60;2.28;;;;;;;-148.56;100.00;61375.16;4999408;28;20041;-29
2022/03/10 01:48:56;;;;;;;4.63;2.58;;;;;;;-148.56;100.00;61375.16;5002023;28;20028;-30
2022/03/10 01:51:22;;;;;;;3.40;2.33;;;;;;;-148.56;100.00;61375.16;5000263;28;20034;-27
2022/03/10 01:53:50;;;;;;;3.38;2.20;;;;;;;-148.56;100.00;61375.16;5001219;28;20029;-29
2022/03/10 01:56:16;;;;;;;3.78;2.10;;;;;;;-148.56;100.00;61375.16;5001339;28;20037;-30
2022/03/10 01:58:41;;;;;;;3.00;2.25;;;;;;;-148.56;100.00;61375.16;5001607;28;20036;-28
2022/03/10 02:01:09;;;;;;;3.72;2.30;;;;;;;-148.56;100.00;61375.16;4975872;28;20492;-28
2022/03/10 02:03:34;;;;;;;2.83;2.10;;;;;;;-148.56;100.00;61375.16;4993736;28;20110;-28
2022/03/10 02:05:59;;;;;;;3.53;2.20;;;;;;;-148.56;100.00;61375.16;4991205;28;20041;-28
2022/03/10 02:11:09;;;;;;;3.95;2.10;;;;;;;-148.56;100.00;61375.16;4962782;28;20165;-30
2022/03/10 02:13:34;;;;;;;3.33;2.28;;;;;;;-148.56;100.00;61375.16;4992348;28;20253;-30
2022/03/10 02:18:44;;;;;;;3.88;2.20;;;;;;;-148.56;100.00;61375.16;4991969;28;20047;-28
2022/03/10 02:21:10;;;;;;;2.75;2.10;;;;;;;-148.56;100.00;61375.16;4992680;28;20033;-29
2022/03/10 02:23:35;;;;;;;2.85;2.25;;;;;;;-148.56;100.00;61375.16;4992224;28;20056;-31
2022/03/10 02:26:00;;;;;;;3.25;2.17;;;;;;;-148.56;100.00;61375.16;4989392;28;20033;-28
2022/03/10 02:28:27;;;;;;;2.67;2.05;;;;;;;-148.56;100.00;61375.16;4974633;28;20092;-31
2022/03/10 02:30:53;;;;;;;5.38;2.53;;;;;;;-148.56;100.00;61375.16;4992317;28;20025;-30
2022/03/10 02:33:18;;;;;;;3.55;2.25;;;;;;;-148.56;100.00;61375.16;4993250;28;20049;-30
2022/03/10 02:35:43;;;;;;;3.55;2.35;;;;;;;-148.56;100.00;61375.16;4994377;28;21022;-30
2022/03/10 02:38:09;;;;;;;2.40;1.88;;;;;;;-148.56;100.00;61375.16;4959384;28;20092;-31
2022/03/10 02:40:35;;;;;;;2.55;2.08;;;;;;;-148.56;100.00;61375.16;4972524;28;20037;-29
2022/03/10 02:43:00;;;;;;;3.03;2.22;;;;;;;-148.56;100.00;61375.16;4990199;28;20030;-27
2022/03/10 02:45:26;;;;;;;2.65;1.92;;;;;;;-148.56;100.00;61375.16;4993584;28;20045;-28
2022/03/10 02:47:51;;;;;;;2.72;2.10;;;;;;;-148.56;100.00;61375.16;4991553;28;21037;-25
2022/03/10 02:50:17;;;;;;;3.28;2.28;;;;;;;-148.56;100.00;61375.16;4989730;28;20041;-29
2022/03/10 02:52:43;;;;;;;3.72;2.20;;;;;;;-148.56;100.00;61375.16;4991236;28;20037;-31
2022/03/10 02:55:08;;;;;;;3.00;2.28;;;;;;;-148.56;100.00;61375.16;4991548;28;20084;-29
2022/03/10 02:57:34;;;;;;;2.97;1.70;;;;;;;-148.56;100.00;61375.16;4989745;28;20987;-31
2022/03/10 03:00:00;;;;;;;3.25;2.20;;;;;;;-148.56;100.00;61375.16;4991711;28;20040;-29
2022/03/10 03:02:25;;;;;;;3.20;2.30;;;;;;;-148.56;100.00;61375.16;4991130;28;20611;-31
2022/03/10 03:04:51;;;;;;;4.97;2.22;;;;;;;-148.56;100.00;61375.16;4995216;28;20056;-33
2022/03/10 03:07:16;;;;;;;2.42;1.90;;;;;;;-148.56;100.00;61375.16;4992840;28;20029;-28
2022/03/10 03:09:42;;;;;;;2.22;1.88;;;;;;;-148.56;100.00;61375.16;4991487;28;20671;-26
2022/03/10 03:12:07;;;;;;;2.55;1.90;;;;;;;-148.56;100.00;61375.16;4993737;28;20084;-26
2022/03/10 03:14:33;;;;;;;2.55;2.05;;;;;;;-148.56;100.00;61375.16;4973348;28;20084;-26
2022/03/10 03:16:58;;;;;;;2.50;1.92;;;;;;;-148.56;100.00;61375.16;4989663;28;20105;-29
2022/03/10 03:19:24;;;;;;;2.55;1.98;;;;;;;-148.56;100.00;61375.16;4992422;28;20030;-29
2022/03/10 03:21:50;;;;;;;2.63;1.98;;;;;;;-148.56;100.00;61375.16;4987626;28;20040;-28
2022/03/10 03:24:16;;;;;;;3.28;2.08;;;;;;;-148.56;100.00;61375.16;4991026;28;20029;-29
2022/03/10 03:26:41;;;;;;;2.83;2.03;;;;;;;-148.56;100.00;61375.16;4991151;28;20029;-33
2022/03/10 03:29:07;;;;;;;15.38;4.35;;;;;;;-148.56;100.00;61375.16;4992074;28;20380;-29
2022/03/10 03:31:32;;;;;;;8.75;4.50;;;;;;;-148.56;100.00;61375.16;4997256;28;20034;-31
2022/03/10 03:33:58;;;;;;;4.57;3.03;;;;;;;-148.56;100.00;61375.16;4994832;28;20034;-30
2022/03/10 03:36:23;;;;;;;3.72;2.30;;;;;;;-148.56;100.00;61375.16;4991095;28;20042;-29
2022/03/10 03:38:48;;;;;;;6.22;2.63;;;;;;;-148.56;100.00;61375.16;4988655;28;20526;-33
2022/03/10 03:41:14;;;;;;;5.03;2.30;;;;;;;-148.56;100.00;61375.16;4997537;28;20026;-27
2022/03/10 03:43:39;;;;;;;3.80;2.42;;;;;;;-148.56;100.00;61375.16;4991531;28;20030;-27
2022/03/10 03:46:05;;;;;;;3.00;2.40;;;;;;;-148.56;100.00;61375.16;4991284;28;20503;-30
2022/03/10 03:48:30;;;;;;;3.67;2.15;;;;;;;-148.56;100.00;61375.16;4991354;28;20531;-27
2022/03/10 03:50:55;;;;;;;3.33;2.10;;;;;;;-148.56;100.00;61375.16;4992129;28;20543;-30
2022/03/10 03:53:21;;;;;;;3.80;2.00;;;;;;;-148.56;100.00;61375.16;4989293;28;20542;-29
2022/03/10 03:55:46;;;;;;;3.28;2.05;;;;;;;-148.56;100.00;61375.16;4990742;28;20038;-32
2022/03/10 03:58:12;;;;;;;3.58;2.10;;;;;;;-148.56;100.00;61375.16;4991166;28;20029;-29
2022/03/10 04:00:37;;;;;;;2.97;2.13;;;;;;;-148.56;100.00;61375.16;4987095;28;20032;-28
2022/03/10 04:03:09;;;;;;;2.97;2.00;;;;;;;-148.56;100.00;61375.16;4989378;28;20844;-29
2022/03/10 04:05:35;;;;;;;7.22;2.10;;;;;;;-148.56;100.00;61375.16;4989387;28;20057;-26
2022/03/10 04:08:00;;;;;;;5.63;2.20;;;;;;;-148.56;100.00;61375.16;4995550;28;20065;-29
2022/03/10 04:10:26;;;;;;;3.53;2.25;;;;;;;-148.56;100.00;61375.16;4989698;28;20533;-32
2022/03/10 04:12:51;;;;;;;3.08;2.00;;;;;;;-148.56;100.00;61375.16;4989195;28;20029;-29
2022/03/10 04:15:16;;;;;;;5.70;1.80;;;;;;;-148.56;100.00;61375.16;4991943;28;20029;-32
2022/03/10 04:17:42;;;;;;;6.30;2.90;;;;;;;-148.56;100.00;61375.16;4989748;28;20439;-28
2022/03/10 04:20:12;;;;;;;4.13;2.88;;;;;;;-148.56;100.00;61375.16;4988243;28;20033;-29
2022/03/10 04:22:38;;;;;;;4.57;2.20;;;;;;;-148.56;100.00;61375.16;4990510;28;20436;-29
2022/03/10 04:25:05;;;;;;;2.72;1.75;;;;;;;-148.56;100.00;61375.16;4991934;28;20063;-31
2022/03/10 04:27:30;;;;;;;2.40;1.85;;;;;;;-148.56;100.00;61375.16;4991162;28;20073;-28
2022/03/10 04:29:56;;;;;;;3.72;1.98;;;;;;;-148.56;100.00;61375.16;4985704;28;20481;-28
2022/03/10 04:32:21;;;;;;;2.50;1.90;;;;;;;-148.56;100.00;61375.16;4989161;28;20026;-29
2022/03/10 04:34:46;;;;;;;3.42;2.10;;;;;;;-148.56;100.00;61375.16;4991134;28;20045;-27
2022/03/10 04:37:12;;;;;;;2.28;1.77;;;;;;;-148.56;100.00;61375.16;4988884;28;20037;-31
2022/03/10 04:39:37;;;;;;;3.10;1.90;;;;;;;-148.56;100.00;61375.16;4992242;28;20451;-27
2022/03/10 04:42:03;;;;;;;2.45;1.70;;;;;;;-148.56;100.00;61375.16;4991200;28;20040;-30
2022/03/10 04:44:28;;;;;;;1.90;1.70;;;;;;;-148.56;100.00;61375.16;4989464;28;20036;-28
2022/03/10 04:46:53;;;;;;;3.22;1.90;;;;;;;-148.56;100.00;61375.16;4988535;28;20034;-32
2022/03/10 04:49:19;;;;;;;2.80;2.03;;;;;;;-148.56;100.00;61375.16;4991788;28;20094;-25
2022/03/10 04:51:44;;;;;;;2.65;1.80;;;;;;;-148.56;100.00;61375.16;4989312;28;20085;-31
2022/03/10 04:54:10;;;;;;;1.75;1.63;;;;;;;-148.56;100.00;61375.16;4990105;28;20483;-28
2022/03/10 04:56:35;;;;;;;2.55;1.70;;;;;;;-148.56;100.00;61375.16;4989218;28;20413;-28
2022/03/10 04:59:00;;;;;;;2.90;2.22;;;;;;;-148.56;100.00;61375.16;4990889;28;20504;-30
2022/03/10 05:01:26;;;;;;;1.92;1.65;;;;;;;-148.56;100.00;61375.16;4989425;28;20030;-31
2022/03/10 05:03:51;;;;;;;3.85;1.60;;;;;;;-148.56;100.00;61375.16;4992980;28;20036;-30
2022/03/10 05:06:17;;;;;;;2.58;2.00;;;;;;;-148.56;100.00;61375.16;4991396;28;20022;-30
2022/03/10 05:08:43;;;;;;;2.60;1.88;;;;;;;-148.56;100.00;61375.16;4992472;28;20502;-27
2022/03/10 05:11:08;;;;;;;2.97;1.80;;;;;;;-148.56;100.00;61375.16;4986938;28;20029;-31
2022/03/10 05:13:34;;;;;;;2.63;1.90;;;;;;;-148.56;100.00;61375.16;4992582;28;20092;-28
2022/03/10 05:15:59;;;;;;;2.42;1.90;;;;;;;-148.56;100.00;61375.16;4996796;28;20029;-29
2022/03/10 05:18:24;;;;;;;2.65;1.80;;;;;;;-148.56;100.00;61375.16;4998336;28;20597;-28
2022/03/10 05:20:50;;;;;;;2.38;1.73;;;;;;;-148.56;100.00;61375.16;4999624;28;20087;-28
2022/03/10 05:23:15;;;;;;;2.25;1.85;;;;;;;-148.56;100.00;61375.16;5002178;28;20033;-31
2022/03/10 05:25:41;;;;;;;2.13;1.70;;;;;;;-148.56;100.00;61375.16;5001916;28;20723;-30
2022/03/10 05:28:11;;;;;;;2.75;1.98;;;;;;;-148.56;100.00;61375.16;5003585;28;20057;-30
2022/03/10 05:30:36;;;;;;;1.90;1.60;;;;;;;-148.56;100.00;61375.16;5002347;28;20653;-32
2022/03/10 05:33:02;;;;;;;1.60;1.40;;;;;;;-148.56;100.00;61375.16;5000041;28;20030;-28
2022/03/10 05:35:29;;;;;;;2.88;1.90;;;;;;;-148.56;100.00;61375.16;5002718;28;20037;-31
2022/03/10 05:37:54;;;;;;;3.95;1.83;;;;;;;-148.56;100.00;61375.16;4999091;28;20116;-29
2022/03/10 05:40:20;;;;;;;2.35;1.60;;;;;;;-148.56;100.00;61375.16;5001472;28;20866;-30
2022/03/10 05:42:46;;;;;;;2.75;1.65;;;;;;;-148.56;100.00;61375.16;5000271;28;20038;-32
2022/03/10 05:45:12;;;;;;;2.13;1.58;;;;;;;-148.56;100.00;61375.16;4997170;28;20028;-30
2022/03/10 05:47:38;;;;;;;1.58;1.40;;;;;;;-148.56;100.00;61375.16;4991979;28;20080;-28
2022/03/10 05:50:04;;;;;;;1.90;1.40;;;;;;;-148.56;100.00;61375.16;4994214;28;20075;-29
2022/03/10 05:52:30;;;;;;;1.50;1.40;;;;;;;-148.56;100.00;61375.16;4992643;28;20548;-25
2022/03/10 05:54:55;;;;;;;2.40;1.60;;;;;;;-148.56;100.00;61375.16;4993054;28;20610;-28
2022/03/10 05:57:20;;;;;;;1.85;1.67;;;;;;;-148.56;100.00;61375.16;4991999;28;20087;-30
2022/03/10 05:59:46;;;;;;;1.45;1.35;;;;;;;-148.56;100.00;61375.16;4991530;28;20037;-28
2022/03/10 06:02:11;;;;;;;1.38;1.20;;;;;;;-148.56;100.00;61375.16;4991823;28;20057;-29
2022/03/10 06:04:37;;;;;;;2.58;1.67;;;;;;;-148.56;100.00;61375.16;4993745;28;20495;-29
2022/03/10 06:07:03;;;;;;;1.98;1.60;;;;;;;-148.56;100.00;61375.16;4990967;28;20033;-30
2022/03/10 06:09:28;;;;;;;1.88;1.30;;;;;;;-148.56;100.00;61375.16;4991601;28;20038;-32
2022/03/10 06:11:54;;;;;;;2.88;1.55;;;;;;;-148.56;100.00;61375.16;4990800;28;20030;-31
2022/03/10 06:14:19;;;;;;;1.90;1.45;;;;;;;-148.56;100.00;61375.16;4992377;28;20029;-29
2022/03/10 06:16:45;;;;;;;3.28;1.75;;;;;;;-148.56;100.00;61375.16;4988058;28;20042;-30
2022/03/10 06:19:10;;;;;;;1.67;1.30;;;;;;;-148.56;100.00;61375.16;4991884;28;20084;-28
2022/03/10 06:21:37;;;;;;;1.52;1.42;;;;;;;-148.56;100.00;61375.16;4973422;28;20179;-32
2022/03/10 06:24:02;;;;;;;1.50;1.38;;;;;;;-148.56;100.00;61375.16;4998185;28;20071;-29
2022/03/10 06:26:28;;;;;;;1.92;1.70;;;;;;;-148.56;100.00;61375.16;5002603;28;20651;-31
2022/03/10 06:28:53;;;;;;;1.50;1.35;;;;;;;-148.56;100.00;61375.16;4999860;28;20029;-35
2022/03/10 06:31:19;;;;;;;3.70;1.60;;;;;;;-148.56;100.00;61375.16;5000328;28;20107;-31
2022/03/10 06:33:45;;;;;;;2.40;1.73;;;;;;;-148.56;100.00;61375.16;4999899;28;20049;-34
2022/03/10 06:36:11;;;;;;;1.73;1.40;;;;;;;-148.56;100.00;61375.16;5000183;28;20033;-29
2022/03/10 06:38:36;;;;;;;2.80;1.65;;;;;;;-148.56;100.00;61375.16;4995526;28;20117;-27
2022/03/10 06:41:02;;;;;;;1.77;1.60;;;;;;;-148.56;100.00;61375.16;4991808;28;20033;-31
2022/03/10 06:43:28;;;;;;;1.77;1.45;;;;;;;-148.56;100.00;61375.16;4992681;28;20121;-31
2022/03/10 06:45:53;;;;;;;1.98;1.38;;;;;;;-148.56;100.00;61375.16;4990103;28;20030;-33
2022/03/10 06:48:20;;;;;;;1.73;1.30;;;;;;;-148.56;100.00;61375.16;4990256;28;20025;-30
2022/03/10 06:50:45;;;;;;;2.80;1.70;;;;;;;-148.56;100.00;61375.16;4991866;28;20037;-28
2022/03/10 06:53:11;;;;;;;1.77;1.50;;;;;;;-148.56;100.00;61375.16;4989277;28;20033;-32
2022/03/10 06:55:37;;;;;;;1.63;1.35;;;;;;;-148.56;100.00;61375.16;4990963;28;20017;-33
2022/03/10 06:58:02;;;;;;;1.88;1.30;;;;;;;-148.56;100.00;61375.16;4992044;28;20569;-29
2022/03/10 07:00:28;;;;;;;1.83;1.40;;;;;;;-148.56;100.00;61375.16;4991225;28;20038;-31
2022/03/10 07:02:53;;;;;;;3.63;1.75;;;;;;;-148.56;100.00;61375.16;4990942;28;20532;-31
2022/03/10 07:05:19;;;;;;;3.08;1.50;;;;;;;-148.56;100.00;61375.16;4995999;28;20017;-29
2022/03/10 07:07:44;;;;;;;1.95;1.40;;;;;;;-148.56;100.00;61375.16;4991769;28;20033;-30
2022/03/10 07:10:10;;;;;;;2.42;1.60;;;;;;;-148.56;100.00;61375.16;4989358;28;20484;-28
2022/03/10 07:12:36;;;;;;;2.97;1.42;;;;;;;-148.56;100.00;61375.16;4991444;28;20041;-30
2022/03/10 07:15:03;;;;;;;2.03;1.23;;;;;;;-148.56;100.00;61375.16;4988925;28;20056;-29
2022/03/10 07:17:29;;;;;;;7.13;1.75;;;;;;;-148.56;100.00;61375.16;4987541;28;20030;-30
2022/03/10 07:19:54;;;;;;;4.55;1.83;;;;;;;-148.56;100.00;61375.16;4987273;28;20040;-32
2022/03/10 07:22:19;;;;;;;2.15;1.70;;;;;;;-148.56;100.00;61375.16;4990685;28;20025;-30
2022/03/10 07:24:45;;;;;;;6.97;2.60;;;;;;;-148.56;100.00;61375.16;4987567;28;20064;-28
2022/03/10 07:27:11;;;;;;;10.60;3.10;;;;;;;-148.56;100.00;61375.16;4990368;28;20100;-32
2022/03/10 07:29:36;;;;;;;8.98;3.38;;;;;;;-148.56;100.00;61375.16;4984468;28;20034;-32
2022/03/10 07:32:02;;;;;;;15.00;4.00;;;;;;;-148.56;100.00;61375.16;4976702;28;20777;-31
2022/03/10 07:34:27;;;;;;;11.57;3.72;;;;;;;-148.56;100.00;61375.16;4971719;28;21100;-31
2022/03/10 07:36:53;;;;;;;13.73;3.65;;;;;;;-148.56;100.00;61375.16;4971482;28;20030;-33
2022/03/10 07:39:19;;;;;;;13.35;3.95;;;;;;;-148.56;100.00;61375.16;4971456;28;20037;-31
2022/03/10 07:41:44;;;;;;;12.02;3.83;;;;;;;-148.56;100.00;61375.16;4938406;28;20038;-35
2022/03/10 07:44:10;;;;;;;11.48;3.80;;;;;;;-148.56;100.00;61375.16;4971757;28;20033;-26
2022/03/10 07:46:35;;;;;;;9.40;3.67;;;;;;;-148.56;100.00;61375.16;4964450;28;20034;-29
2022/03/10 07:49:00;;;;;;;8.05;3.67;;;;;;;-148.56;100.00;61375.16;4978755;28;20072;-33
2022/03/10 07:51:26;;;;;;;6.88;3.25;;;;;;;-148.56;100.00;61375.16;4986194;28;20038;-28
2022/03/10 07:53:51;;;;;;;12.55;3.92;;;;;;;-148.56;100.00;61375.16;4987358;28;20624;-29
2022/03/10 07:56:17;;;;;;;9.70;3.50;;;;;;;-148.56;100.00;61375.16;4986661;28;20129;-30
2022/03/10 07:58:42;;;;;;;7.88;3.58;;;;;;;-148.56;100.00;61375.16;4990196;28;20061;-30
2022/03/10 08:01:08;;;;;;;7.63;3.75;;;;;;;-148.56;100.00;61375.16;4983684;28;20563;-31
2022/03/10 08:03:35;;;;;;;8.80;3.83;;;;;;;-148.56;100.00;61375.16;4988445;28;20542;-29
2022/03/10 08:06:01;;;;;;;10.00;4.40;;;;;;;-148.56;100.00;61375.16;4972531;28;20088;-29
2022/03/10 08:08:26;;;;;;;8.10;3.70;;;;;;;-148.56;100.00;61375.16;4990183;28;20579;-30
2022/03/10 08:10:51;;;;;;;7.15;4.13;;;;;;;-148.56;100.00;61375.16;4987699;28;20030;-29
2022/03/10 08:13:18;;;;;;;6.63;3.90;;;;;;;-148.56;100.00;61375.16;4990578;28;20103;-28
2022/03/10 08:15:44;;;;;;;11.18;4.28;;;;;;;-148.56;100.00;61375.16;4989345;28;20038;-32
2022/03/10 08:18:10;;;;;;;7.70;3.85;;;;;;;-148.56;100.00;61375.16;4992285;28;20774;-27
2022/03/10 08:20:35;;;;;;;7.72;4.22;;;;;;;-148.56;100.00;61375.16;4990027;28;20451;-28
2022/03/10 08:23:02;;;;;;;8.25;4.20;;;;;;;-148.56;100.00;61375.16;4990715;28;20029;-29
2022/03/10 08:25:27;;;;;;;8.85;4.05;;;;;;;-148.56;100.00;61375.16;4989674;28;20017;-28
2022/03/10 08:27:53;;;;;;;6.15;3.40;;;;;;;-148.56;100.00;61375.16;4973590;28;20512;-30
2022/03/10 08:30:18;;;;;;;8.75;3.00;;;;;;;-148.56;100.00;61375.16;4990841;28;20030;-31
2022/03/10 08:32:44;;;;;;;8.13;3.30;;;;;;;-148.56;100.00;61375.16;4989673;28;20025;-27
2022/03/10 08:35:09;;;;;;;7.68;3.42;;;;;;;-148.56;100.00;61375.16;4990056;28;20443;-26
2022/03/10 08:37:35;;;;;;;6.97;3.38;;;;;;;-148.56;100.00;61375.16;4989761;28;20129;-27
2022/03/10 08:40:00;;;;;;;8.10;4.18;;;;;;;-148.56;100.00;61375.16;4990362;28;20029;-24
2022/03/10 08:42:26;;;;;;;8.40;3.45;;;;;;;-148.56;100.00;61375.16;4992672;28;20710;-33
2022/03/10 08:44:51;;;;;;;7.45;3.45;;;;;;;-148.56;100.00;61375.16;4990287;28;20018;-28
2022/03/10 08:47:17;;;;;;;8.45;3.22;;;;;;;-148.56;100.00;61375.16;4970829;28;20030;-26
2022/03/10 08:49:42;;;;;;;9.35;3.60;;;;;;;-148.56;100.00;61375.16;4956412;28;20037;-34
2022/03/10 08:52:07;;;;;;;5.85;3.83;;;;;;;-148.56;100.00;61375.16;4961255;28;20041;-22
2022/03/10 08:54:33;;;;;;;5.80;3.35;;;;;;;-148.56;100.00;61375.16;4961469;28;20284;-26
2022/03/10 08:56:58;;;;;;;8.27;3.50;;;;;;;-148.56;100.00;61375.16;4964894;28;21065;-28
2022/03/10 08:59:24;;;;;;;6.10;3.40;;;;;;;-148.56;100.00;61375.16;4967387;28;20093;-25
2022/03/10 09:01:49;;;;;;;7.57;2.80;;;;;;;-148.56;100.00;61375.16;4966246;28;20035;-29
2022/03/10 09:04:16;;;;;;;6.90;2.80;;;;;;;-148.56;100.00;61375.16;4966983;28;20021;-25
2022/03/10 09:06:41;;;;;;;9.68;3.20;;;;;;;-148.56;100.00;61375.16;4965388;28;20069;-31
2022/03/10 09:09:07;;;;;;;7.13;3.00;;;;;;;-148.56;100.00;61375.16;4965212;28;20565;-28
2022/03/10 09:11:33;;;;;;;7.55;2.83;;;;;;;-148.56;100.00;61375.16;4964090;28;20037;-29
2022/03/10 09:13:59;;;;;;;5.43;3.22;;;;;;;-148.56;100.00;61375.16;4963739;28;20038;-29
2022/03/10 09:16:25;;;;;;;6.03;3.05;;;;;;;-148.56;100.00;61375.16;4963757;28;20038;-27
2022/03/10 09:18:50;;;;;;;3.83;2.45;;;;;;;-148.56;100.00;61375.16;4966303;28;20071;-26
2022/03/10 09:21:16;;;;;;;5.80;2.85;;;;;;;-148.56;100.00;61375.16;4933637;28;22105;-26
2022/03/10 09:23:42;;;;;;;4.90;2.90;;;;;;;-148.56;100.00;61375.16;4957775;28;21081;-24
2022/03/10 09:26:07;;;;;;;4.28;2.55;;;;;;;-148.56;100.00;61375.16;4955089;28;20038;-25
2022/03/10 09:28:33;;;;;;;13.88;5.13;;;;;;;-148.56;100.00;61375.16;4959226;28;20033;-26
2022/03/10 09:30:58;;;;;;;19.20;6.57;;;;;;;-148.56;100.00;61375.16;4962843;28;20949;-28
2022/03/10 09:33:23;;;;;;;11.63;6.25;;;;;;;-148.56;100.00;61375.16;4961381;28;22010;-29
2022/03/10 09:35:49;;;;;;;7.43;5.70;;;;;;;-148.56;100.00;61375.16;4960622;28;20152;-25
2022/03/10 09:38:15;;;;;;;8.68;6.07;;;;;;;-148.56;100.00;61375.16;4963200;28;20264;-32
2022/03/10 09:40:40;;;;;;;7.88;5.72;;;;;;;-148.56;100.00;61375.16;4996809;28;20033;-27
2022/03/10 09:43:05;;;;;;;8.85;5.13;;;;;;;-148.56;100.00;61375.16;5002475;28;20029;-27
2022/03/10 09:45:31;;;;;;;5.90;4.57;;;;;;;-148.56;100.00;61375.16;4995586;28;20021;-30
2022/03/10 09:47:56;;;;;;;10.15;4.85;;;;;;;-148.56;100.00;61375.16;4984648;28;20038;-29
2022/03/10 09:50:22;;;;;;;5.90;4.25;;;;;;;-148.56;100.00;61375.16;4975141;28;20029;-27
2022/03/10 09:52:47;;;;;;;7.63;4.78;;;;;;;-148.56;100.00;61375.16;4994273;28;20042;-30
2022/03/10 09:55:15;;;;;;;7.65;4.18;;;;;;;-148.56;100.00;61375.16;4993402;28;20058;-29
2022/03/10 09:57:42;;;;;;;8.68;3.83;;;;;;;-148.56;100.00;61375.16;4999156;28;20509;-29
2022/03/10 10:00:10;;;;;;;7.00;4.00;;;;;;;-148.56;100.00;61375.16;4997003;28;20112;-28
2022/03/10 10:02:37;;;;;;;7.90;3.35;;;;;;;-148.56;100.00;61375.16;4998550;28;20026;-33
2022/03/10 10:05:17;;;;;;;13.73;3.47;;;;;;;-148.56;100.00;61375.16;4996291;28;20030;-29
2022/03/10 10:07:43;;;;;;;5.63;2.90;;;;;;;-148.56;100.00;61375.16;4997149;28;20507;-30
2022/03/10 10:10:10;;;;;;;4.30;3.20;;;;;;;-148.56;100.00;61375.16;4964770;28;20041;-31
2022/03/10 10:12:35;;;;;;;4.47;3.13;;;;;;;-148.56;100.00;61375.16;4997660;28;20033;-30
2022/03/10 10:15:00;;;;;;;5.80;3.13;;;;;;;-148.56;100.00;61375.16;4998257;28;20642;-28
2022/03/10 10:17:30;;;;;;;8.02;3.30;;;;;;;-148.56;100.00;61375.16;4982585;28;20033;-31
2022/03/10 10:19:57;;;;;;;9.15;3.10;;;;;;;-148.56;100.00;61375.16;5004437;28;20033;-33
2022/03/10 10:22:24;;;;;;;6.68;2.83;;;;;;;-148.56;100.00;61375.16;4999110;28;20084;-26
2022/03/10 10:24:50;;;;;;;8.27;3.15;;;;;;;-148.56;100.00;61375.16;4996215;28;20026;-28
2022/03/10 10:27:23;;;;;;;6.18;2.88;;;;;;;-148.56;100.00;61375.16;4994325;28;20588;-29
2022/03/10 10:29:49;;;;;;;5.25;2.70;;;;;;;-148.56;100.00;61375.16;4982177;28;20120;-30
2022/03/10 10:32:27;;;;;;;11.07;2.50;;;;;;;-148.56;100.00;61375.16;4990049;28;20153;-30
2022/03/10 10:35:01;;;;;;;4.60;2.20;;;;;;;-148.56;100.00;61375.16;4994625;28;20421;-27
2022/03/10 10:37:27;;;;;;;5.07;2.45;;;;;;;-148.56;100.00;61375.16;5001116;28;20038;-33
2022/03/10 10:39:53;;;;;;;7.07;2.30;;;;;;;-148.56;100.00;61375.16;4997301;28;20037;-28
2022/03/10 10:42:18;;;;;;;5.05;2.53;;;;;;;-148.56;100.00;61375.16;4993787;28;20064;-29
2022/03/10 10:44:44;;;;;;;8.95;2.55;;;;;;;-148.56;100.00;61375.16;4987094;28;20040;-27
2022/03/10 10:47:09;;;;;;;6.05;2.20;;;;;;;-148.56;100.00;61375.16;4990983;28;20033;-31
2022/03/10 10:49:35;;;;;;;3.83;2.30;;;;;;;-148.56;100.00;61375.16;4991661;28;20037;-32
2022/03/10 10:52:01;;;;;;;6.30;2.10;;;;;;;-148.56;100.00;61375.16;4990389;28;20125;-29
2022/03/10 10:54:27;;;;;;;4.53;1.95;;;;;;;-148.56;100.00;61375.16;4990274;28;20014;-31
2022/03/10 10:57:06;;;;;;;3.30;2.10;;;;;;;-148.56;100.00;61375.16;4989959;28;20021;-34
2022/03/10 10:59:32;;;;;;;6.95;2.38;;;;;;;-148.56;100.00;61375.16;4991780;28;20085;-29
2022/03/10 11:02:10;;;;;;;4.53;2.15;;;;;;;-148.56;100.00;61375.16;4989361;28;21439;-28
2022/03/10 11:04:54;;;;;;;9.85;2.20;;;;;;;-148.56;100.00;61375.16;4988086;28;20033;-31
2022/03/10 11:07:21;;;;;;;4.93;1.98;;;;;;;-148.56;100.00;61375.16;4990718;28;20030;-31
2022/03/10 11:09:47;;;;;;;4.78;2.10;;;;;;;-148.56;100.00;61375.16;4991427;28;20091;-30